EDDF 210220Z 01006KT 9999 OVC047 13/05 Q1025 NOSIG EDDF 210150Z 02008KT 9999 OVC046 13/06 Q1025 NOSIG EDDF 210120Z 02009KT 9999 OVC046 13/06 Q1025 NOSIG EDDF 210050Z 01008KT 9999 OVC046 13/06 Q1025 NOSIG EDDF 210020Z 02009KT 9999 OVC046 13/06 Q1025 NOSIG EDDF 202350Z 02007KT 9999 OVC046 13/06 Q1025 NOSIG EDDF 202320Z 02008KT 9999 OVC047 13/06 Q1025 NOSIG EDDF 202250Z 02009KT 9999 OVC047 13/06 Q1025 NOSIG EDDF 202220Z 02009KT 9999 OVC048 13/07 Q1024 NOSIG EDDF 202150Z 02009KT 9999 OVC047 14/07 Q1024 NOSIG EDDF 202120Z 02008KT 9999 BKN047 14/08 Q1024 NOSIG EDDF 202050Z 04008KT 9999 BKN047 14/07 Q1024 NOSIG EDDF 202020Z 04008KT 9999 FEW039 BKN048 14/07 Q1023 NOSIG EDDF 201950Z 02007KT 9999 FEW039 BKN049 14/07 Q1023 NOSIG EDDF 201920Z 02007KT 340V050 9999 FEW038 15/07 Q1023 NOSIG EDDF 201850Z 02007KT CAVOK 15/07 Q1023 NOSIG EDDF 201820Z 03008KT CAVOK 15/07 Q1022 NOSIG EDDF 201750Z 03008KT 9999 FEW040 15/07 Q1022 NOSIG EDDF 201720Z 03009KT 9999 FEW040 15/07 Q1022 NOSIG EDDF 201650Z 02008KT 350V050 9999 FEW040 15/07 Q1021 NOSIG EDDF 201620Z 02011KT 9999 FEW038 SCT042 16/07 Q1021 NOSIG EDDF 201550Z 01010KT 9999 FEW037 BKN042 16/07 Q1021 NOSIG EDDF 201520Z 02009KT 9999 FEW035 BKN037 16/08 Q1021 NOSIG EDDF 201450Z 03005KT 350V130 9999 FEW033 BKN036 17/08 Q1020 NOSIG EDDF 201420Z 09005KT 040V160 9999 FEW031 BKN036 17/09 Q1020 NOSIG EDDF 201350Z 06004KT 010V090 9999 FEW031 BKN035 17/08 Q1020 NOSIG EDDF 201320Z 06005KT 350V110 9999 FEW031 SCT034 17/08 Q1020 NOSIG EDDF 201250Z 09006KT 010V150 9999 FEW031 SCT034 17/08 Q1020 NOSIG EDDF 201220Z 10006KT 070V140 9999 SCT031 BKN040 16/08 Q1020 NOSIG EDDF 201150Z 08006KT 050V120 9999 FEW031 SCT040 16/08 Q1020 NOSIG EDDF 201120Z 08007KT 050V160 9999 FEW029 17/08 Q1020 NOSIG EDDF 201050Z 07007KT 030V120 9999 FEW027 16/08 Q1020 NOSIG EDDF 201020Z 07007KT 030V150 9999 FEW028 16/08 Q1020 NOSIG EDDF 200950Z 04008KT 9999 FEW028 15/09 Q1020 NOSIG EDDF 200920Z 05008KT 9999 FEW044 14/08 Q1019 NOSIG EDDF 200850Z 05007KT 030V090 9999 FEW031 14/08 Q1019 NOSIG EDDF 200820Z 06007KT 020V090 9999 BKN031 14/08 Q1019 NOSIG EDDF 200750Z 05006KT 030V100 9999 SCT029 13/08 Q1019 NOSIG EDDF 200720Z 05007KT 020V080 9999 SCT027 13/08 Q1019 NOSIG EDDF 200650Z 02007KT 9999 SCT027 12/08 Q1019 NOSIG EDDF 200620Z 03007KT 9999 SCT026 12/08 Q1018 NOSIG EDDF 200550Z 01007KT 9999 BKN025 12/08 Q1018 NOSIG EDDF 200520Z 02007KT 9999 SCT024 12/08 Q1018 NOSIG EDDF 200450Z 02007KT 9999 BKN025 OVC049 12/08 Q1018 NOSIG EDDF 200420Z 01007KT 9999 BKN026 12/08 Q1018 NOSIG EDDF 200350Z 01006KT 9999 BKN025 12/08 Q1018 NOSIG EDDF 200320Z 02007KT 9999 FEW024 BKN029 12/08 Q1017 NOSIG EDDF 200250Z 01007KT 9999 BKN029 OVC049 12/08 Q1017 NOSIG EDDF 200220Z 01006KT 9999 SCT029 OVC049 13/08 Q1017 NOSIG EDDF 200150Z 02006KT 9999 FEW029 OVC049 13/08 Q1017 NOSIG EDDF 200120Z 02007KT 9999 FEW030 OVC048 13/08 Q1017 NOSIG EDDF 200050Z 02006KT 9999 FEW030 OVC046 13/08 Q1017 NOSIG EDDF 200020Z 02007KT 9999 SCT030 OVC046 13/08 Q1017 NOSIG EDDF 192350Z 02007KT 9999 FEW033 OVC047 13/08 Q1017 NOSIG EDDF 192320Z 02007KT 9999 FEW033 OVC045 13/08 Q1017 NOSIG EDDF 192250Z 01006KT 9999 FEW034 OVC046 13/09 Q1017 NOSIG EDDF 192220Z 03006KT 9999 SCT034 BKN047 13/09 Q1017 NOSIG EDDF 192150Z 02008KT 9999 BKN034 BKN047 13/09 Q1017 NOSIG EDDF 192120Z 02007KT 9999 BKN033 14/09 Q1017 NOSIG EDDF 192050Z 02008KT 9999 BKN032 14/09 Q1017 NOSIG EDDF 192020Z 02008KT 9999 BKN030 13/08 Q1016 NOSIG EDDF 191950Z 02008KT 9999 FEW049 14/08 Q1016 NOSIG EDDF 191920Z 02010KT 9999 FEW049 14/08 Q1016 NOSIG EDDF 191850Z 02009KT 9999 FEW049 14/09 Q1016 NOSIG EDDF 191820Z 03011KT CAVOK 15/09 Q1015 NOSIG EDDF 191750Z 02012KT 9999 FEW032 16/09 Q1015 NOSIG EDDF 191720Z 02011KT 9999 FEW032 16/10 Q1015 NOSIG EDDF 191650Z 02010KT 360V060 9999 FEW036 17/10 Q1015 NOSIG EDDF 191620Z 02011KT 9999 FEW036 17/10 Q1015 NOSIG EDDF 191550Z 01012KT 350V050 9999 FEW036 17/11 Q1015 NOSIG EDDF 191520Z 02013KT 9999 FEW036 18/11 Q1014 NOSIG EDDF 191450Z 03014KT 9999 FEW036 19/11 Q1014 NOSIG

METAR Messwerte

Zurück zur Übersicht

Ort
m ü. NN
Zeit Temperatur Taupunkt Rel.
Luftfeuchte
Luftdruck:
Altimeter
NN
Station
Wind in Beaufort
(Knoten)
Sichtweite
(Meter)
Wolken
(Meter über Grund)
Wettererscheinung
Frankfurt
113
Di 21.09. 04:2013558 %1025
1025
1011
N 2 (6)>= 10000Bedeckt (1400) 
Frankfurt
113
Di 21.09. 03:5013662 %1025
1025
1011
NNO 3 (8)>= 10000Bedeckt (1400) 
Frankfurt
113
Di 21.09. 03:2013662 %1025
1025
1011
NNO 3 (9)>= 10000Bedeckt (1400) 
Frankfurt
113
Di 21.09. 02:5013662 %1025
1025
1011
N 3 (8)>= 10000Bedeckt (1400) 
Frankfurt
113
Di 21.09. 02:2013662 %1025
1025
1011
NNO 3 (9)>= 10000Bedeckt (1400) 
Frankfurt
113
Di 21.09. 01:5013662 %1025
1025
1011
NNO 3 (7)>= 10000Bedeckt (1400) 
Frankfurt
113
Di 21.09. 01:2013662 %1025
1025
1011
NNO 3 (8)>= 10000Bedeckt (1400) 
Frankfurt
113
Di 21.09. 00:5013662 %1025
1025
1011
NNO 3 (9)>= 10000Bedeckt (1400) 
Frankfurt
113
Di 21.09. 00:2013767 %1024
1024
1010
NNO 3 (9)>= 10000Bedeckt (1500) 
Frankfurt
113
Mo 20.09. 23:5014763 %1024
1024
1010
NNO 3 (9)>= 10000Bedeckt (1400) 
Frankfurt
113
Mo 20.09. 23:2014867 %1024
1024
1010
NNO 3 (8)>= 10000Stark bewölkt (1400) 
Frankfurt
113
Mo 20.09. 22:5014763 %1024
1024
1010
NO 3 (8)>= 10000Stark bewölkt (1400) 
Frankfurt
113
Mo 20.09. 22:2014763 %1023
1023
1009
NO 3 (8)>= 10000Stark bewölkt (1500)
Leicht bewölkt (1200)
 
Frankfurt
113
Mo 20.09. 21:5014763 %1023
1023
1009
NNO 3 (7)>= 10000Stark bewölkt (1500)
Leicht bewölkt (1200)
 
Frankfurt
113
Mo 20.09. 21:2015759 %1023
1023
1009
NNO 3 (7)
NNW - NO
>= 10000Leicht bewölkt (1200) 
Frankfurt
113
Mo 20.09. 20:5015759 %1023
1023
1009
NNO 3 (7)>= 10000Nicht signifikant 
Frankfurt
113
Mo 20.09. 20:2015759 %1022
1022
1008
NNO 3 (8)>= 10000Nicht signifikant 
Frankfurt
113
Mo 20.09. 19:5015759 %1022
1022
1008
NNO 3 (8)>= 10000Leicht bewölkt (1200) 
Frankfurt
113
Mo 20.09. 19:2015759 %1022
1022
1008
NNO 3 (9)>= 10000Leicht bewölkt (1200) 
Frankfurt
113
Mo 20.09. 18:5015759 %1021
1021
1007
NNO 3 (8)
N - NO
>= 10000Leicht bewölkt (1200) 
Frankfurt
113
Mo 20.09. 18:2016755 %1021
1021
1007
NNO 4 (11)>= 10000Wolkig (1300)
Leicht bewölkt (1200)
 
Frankfurt
113
Mo 20.09. 17:5016755 %1021
1021
1007
N 3 (10)>= 10000Stark bewölkt (1300)
Leicht bewölkt (1100)
 
Frankfurt
113
Mo 20.09. 17:2016859 %1021
1021
1007
NNO 3 (9)>= 10000Stark bewölkt (1100)
Leicht bewölkt (1100)
 
Frankfurt
113
Mo 20.09. 16:5017855 %1020
1020
1006
NNO 2 (5)
N - SO
>= 10000Stark bewölkt (1100)
Leicht bewölkt (1000)
 
Frankfurt
113
Mo 20.09. 16:2017959 %1020
1020
1006
O 2 (5)
NO - SSO
>= 10000Stark bewölkt (1100)
Leicht bewölkt (940)
 
Frankfurt
113
Mo 20.09. 15:5017855 %1020
1020
1006
ONO 2 (4)
N - O
>= 10000Stark bewölkt (1100)
Leicht bewölkt (940)
 
Frankfurt
113
Mo 20.09. 15:2017855 %1020
1020
1006
ONO 2 (5)
N - OSO
>= 10000Wolkig (1000)
Leicht bewölkt (940)
 
Frankfurt
113
Mo 20.09. 14:5017855 %1020
1020
1006
O 2 (6)
N - SSO
>= 10000Wolkig (1000)
Leicht bewölkt (940)
 
Frankfurt
113
Mo 20.09. 14:2016859 %1020
1020
1006
O 2 (6)
ONO - SO
>= 10000Stark bewölkt (1200)
Wolkig (940)
 
Frankfurt
113
Mo 20.09. 13:5016859 %1020
1020
1006
O 2 (6)
NO - OSO
>= 10000Wolkig (1200)
Leicht bewölkt (940)
 
Frankfurt
113
Mo 20.09. 13:2017855 %1020
1020
1006
O 3 (7)
NO - SSO
>= 10000Leicht bewölkt (880) 
Frankfurt
113
Mo 20.09. 12:5016859 %1020
1020
1006
ONO 3 (7)
NNO - OSO
>= 10000Leicht bewölkt (820) 
Frankfurt
113
Mo 20.09. 12:2016859 %1020
1020
1006
ONO 3 (7)
NNO - SSO
>= 10000Leicht bewölkt (850) 
Frankfurt
113
Mo 20.09. 11:5015967 %1020
1020
1006
NO 3 (8)>= 10000Leicht bewölkt (850) 
Frankfurt
113
Mo 20.09. 11:2014867 %1019
1019
1005
NO 3 (8)>= 10000Leicht bewölkt (1300) 
Frankfurt
113
Mo 20.09. 10:5014867 %1019
1019
1005
NO 3 (7)
NNO - O
>= 10000Leicht bewölkt (940) 
Frankfurt
113
Mo 20.09. 10:2014867 %1019
1019
1005
ONO 3 (7)
NNO - O
>= 10000Stark bewölkt (940) 
Frankfurt
113
Mo 20.09. 09:5013872 %1019
1019
1005
NO 2 (6)
NNO - O
>= 10000Wolkig (880) 
Frankfurt
113
Mo 20.09. 09:2013872 %1019
1019
1005
NO 3 (7)
NNO - O
>= 10000Wolkig (820) 
Frankfurt
113
Mo 20.09. 08:5012876 %1019
1019
1005
NNO 3 (7)>= 10000Wolkig (820) 
Frankfurt
113
Mo 20.09. 08:2012876 %1018
1018
1004
NNO 3 (7)>= 10000Wolkig (790) 
Frankfurt
113
Mo 20.09. 07:5012876 %1018
1018
1004
N 3 (7)>= 10000Stark bewölkt (760) 
Frankfurt
113
Mo 20.09. 07:2012876 %1018
1018
1004
NNO 3 (7)>= 10000Wolkig (730) 
Frankfurt
113
Mo 20.09. 06:5012876 %1018
1018
1004
NNO 3 (7)>= 10000Bedeckt (1500)
Stark bewölkt (760)
 
Frankfurt
113
Mo 20.09. 06:2012876 %1018
1018
1004
N 3 (7)>= 10000Stark bewölkt (790) 
Frankfurt
113
Mo 20.09. 05:5012876 %1018
1018
1004
N 2 (6)>= 10000Stark bewölkt (760) 
Frankfurt
113
Mo 20.09. 05:2012876 %1017
1017
1003
NNO 3 (7)>= 10000Stark bewölkt (880)
Leicht bewölkt (730)
 
Frankfurt
113
Mo 20.09. 04:5012876 %1017
1017
1003
N 3 (7)>= 10000Bedeckt (1500)
Stark bewölkt (880)
 
Frankfurt
113
Mo 20.09. 04:2013872 %1017
1017
1003
N 2 (6)>= 10000Bedeckt (1500)
Wolkig (880)
 
Frankfurt
113
Mo 20.09. 03:5013872 %1017
1017
1003
NNO 2 (6)>= 10000Bedeckt (1500)
Leicht bewölkt (880)
 
Frankfurt
113
Mo 20.09. 03:2013872 %1017
1017
1003
NNO 3 (7)>= 10000Bedeckt (1500)
Leicht bewölkt (910)
 
Frankfurt
113
Mo 20.09. 02:5013872 %1017
1017
1003
NNO 2 (6)>= 10000Bedeckt (1400)
Leicht bewölkt (910)
 
Frankfurt
113
Mo 20.09. 02:2013872 %1017
1017
1003
NNO 3 (7)>= 10000Bedeckt (1400)
Wolkig (910)
 
Frankfurt
113
Mo 20.09. 01:5013872 %1017
1017
1003
NNO 3 (7)>= 10000Bedeckt (1400)
Leicht bewölkt (1000)
 
Frankfurt
113
Mo 20.09. 01:2013872 %1017
1017
1003
NNO 3 (7)>= 10000Bedeckt (1400)
Leicht bewölkt (1000)
 
Frankfurt
113
Mo 20.09. 00:5013977 %1017
1017
1003
N 2 (6)>= 10000Bedeckt (1400)
Leicht bewölkt (1000)
 
Frankfurt
113
Mo 20.09. 00:2013977 %1017
1017
1003
NNO 2 (6)>= 10000Stark bewölkt (1400)
Wolkig (1000)
 
Frankfurt
113
So 19.09. 23:5013977 %1017
1017
1003
NNO 3 (8)>= 10000Stark bewölkt (1400)
Stark bewölkt (1000)
 
Frankfurt
113
So 19.09. 23:2014972 %1017
1017
1003
NNO 3 (7)>= 10000Stark bewölkt (1000) 
Frankfurt
113
So 19.09. 22:5014972 %1017
1017
1003
NNO 3 (8)>= 10000Stark bewölkt (980) 
Frankfurt
113
So 19.09. 22:2013872 %1016
1016
1002
NNO 3 (8)>= 10000Stark bewölkt (910) 
Frankfurt
113
So 19.09. 21:5014867 %1016
1016
1002
NNO 3 (8)>= 10000Leicht bewölkt (1500) 
Frankfurt
113
So 19.09. 21:2014867 %1016
1016
1002
NNO 3 (10)>= 10000Leicht bewölkt (1500) 
Frankfurt
113
So 19.09. 20:5014972 %1016
1016
1002
NNO 3 (9)>= 10000Leicht bewölkt (1500) 
Frankfurt
113
So 19.09. 20:2015967 %1015
1015
1001
NNO 4 (11)>= 10000Nicht signifikant 
Frankfurt
113
So 19.09. 19:5016963 %1015
1015
1001
NNO 4 (12)>= 10000Leicht bewölkt (980) 
Frankfurt
113
So 19.09. 19:20161068 %1015
1015
1001
NNO 4 (11)>= 10000Leicht bewölkt (980) 
Frankfurt
113
So 19.09. 18:50171063 %1015
1015
1001
NNO 3 (10)
N - ONO
>= 10000Leicht bewölkt (1100) 
Frankfurt
113
So 19.09. 18:20171063 %1015
1015
1001
NNO 4 (11)>= 10000Leicht bewölkt (1100) 
Frankfurt
113
So 19.09. 17:50171168 %1015
1015
1001
N 4 (12)
N - NO
>= 10000Leicht bewölkt (1100) 
Frankfurt
113
So 19.09. 17:20181164 %1014
1014
1000
NNO 4 (13)>= 10000Leicht bewölkt (1100) 
Frankfurt
113
So 19.09. 16:50191160 %1014
1014
1000
NNO 4 (14)>= 10000Leicht bewölkt (1100) 

Altimeter: Einstellung am Altimeter (Höhenmesser), die Höhe 0 muss auf diesen Luftdruckwert zeigen, damit das Gerät die Stationshöhe richtig anzeigt.

NN: Luftdruck reduziert auf "Normal Null", auf Meereshöhe, dieser von der Temperatur abhängige Wert wird bisweilen unkorrekt einfach als "Luftdruck" bezeichnet. Eigentlich nur eine fiktive Größe, die es erlaubt, Stationen auf unterschiedlichen Höhen miteinander zu vergleichen.

Station: Realer Luftdruck an der Station.